sensor_id;sensor_type;location;lat;lon;timestamp;temperature;humidity
13086;DHT22;6609;49.882;8.664;2023-07-20T00:00:58;21.70;43.30
13086;DHT22;6609;49.882;8.664;2023-07-20T00:05:51;21.80;43.40
13086;DHT22;6609;49.882;8.664;2023-07-20T00:08:18;21.70;43.40
13086;DHT22;6609;49.882;8.664;2023-07-20T00:13:13;21.70;43.40
13086;DHT22;6609;49.882;8.664;2023-07-20T00:15:41;21.70;43.30
13086;DHT22;6609;49.882;8.664;2023-07-20T00:18:08;21.90;43.50
13086;DHT22;6609;49.882;8.664;2023-07-20T00:20:35;21.60;43.60
13086;DHT22;6609;49.882;8.664;2023-07-20T00:25:29;21.50;43.80
13086;DHT22;6609;49.882;8.664;2023-07-20T00:27:55;21.50;43.90
13086;DHT22;6609;49.882;8.664;2023-07-20T00:30:23;21.40;43.60
13086;DHT22;6609;49.882;8.664;2023-07-20T00:42:38;21.30;44.40
13086;DHT22;6609;49.882;8.664;2023-07-20T00:45:06;21.20;44.30
13086;DHT22;6609;49.882;8.664;2023-07-20T00:47:34;21.20;44.60
13086;DHT22;6609;49.882;8.664;2023-07-20T00:50:02;21.20;44.80
13086;DHT22;6609;49.882;8.664;2023-07-20T00:54:56;21.20;44.80
13086;DHT22;6609;49.882;8.664;2023-07-20T00:59:51;21.20;44.90
13086;DHT22;6609;49.882;8.664;2023-07-20T01:02:18;21.20;45.10
13086;DHT22;6609;49.882;8.664;2023-07-20T01:04:48;21.20;45.10
13086;DHT22;6609;49.882;8.664;2023-07-20T01:07:23;21.20;45.10
13086;DHT22;6609;49.882;8.664;2023-07-20T01:09:59;21.10;45.00
13086;DHT22;6609;49.882;8.664;2023-07-20T01:12:31;21.10;45.10
13086;DHT22;6609;49.882;8.664;2023-07-20T01:17:26;21.10;45.60
13086;DHT22;6609;49.882;8.664;2023-07-20T01:19:54;21.00;45.70
13086;DHT22;6609;49.882;8.664;2023-07-20T01:33:09;20.70;47.60
13086;DHT22;6609;49.882;8.664;2023-07-20T01:57:43;20.10;51.10
13086;DHT22;6609;49.882;8.664;2023-07-20T02:07:34;20.00;51.00
13086;DHT22;6609;49.882;8.664;2023-07-20T02:12:28;20.00;51.00
13086;DHT22;6609;49.882;8.664;2023-07-20T02:14:54;19.90;50.90
13086;DHT22;6609;49.882;8.664;2023-07-20T02:19:50;19.80;50.50
13086;DHT22;6609;49.882;8.664;2023-07-20T02:34:35;19.80;50.20
13086;DHT22;6609;49.882;8.664;2023-07-20T02:39:29;19.70;50.40
13086;DHT22;6609;49.882;8.664;2023-07-20T02:46:51;19.50;50.80
13086;DHT22;6609;49.882;8.664;2023-07-20T02:49:18;19.50;51.00
13086;DHT22;6609;49.882;8.664;2023-07-20T02:54:11;19.40;51.80
13086;DHT22;6609;49.882;8.664;2023-07-20T03:08:57;19.10;53.80
13086;DHT22;6609;49.882;8.664;2023-07-20T03:13:50;19.00;54.40
13086;DHT22;6609;49.882;8.664;2023-07-20T03:18:46;18.90;54.90
13086;DHT22;6609;49.882;8.664;2023-07-20T03:23:41;18.90;55.20
13086;DHT22;6609;49.882;8.664;2023-07-20T03:28:35;18.80;55.80
13086;DHT22;6609;49.882;8.664;2023-07-20T03:38:26;18.70;55.80
13086;DHT22;6609;49.882;8.664;2023-07-20T03:40:54;18.70;55.80
13086;DHT22;6609;49.882;8.664;2023-07-20T03:43:21;18.60;55.90
13086;DHT22;6609;49.882;8.664;2023-07-20T03:50:44;18.60;55.40
13086;DHT22;6609;49.882;8.664;2023-07-20T03:55:38;18.70;55.20
13086;DHT22;6609;49.882;8.664;2023-07-20T03:58:06;18.40;54.70
13086;DHT22;6609;49.882;8.664;2023-07-20T04:00:32;18.60;55.20
13086;DHT22;6609;49.882;8.664;2023-07-20T04:05:26;18.60;55.50
13086;DHT22;6609;49.882;8.664;2023-07-20T04:07:55;18.40;55.80
13086;DHT22;6609;49.882;8.664;2023-07-20T04:12:48;18.50;56.40
13086;DHT22;6609;49.882;8.664;2023-07-20T04:32:27;18.60;55.80
13086;DHT22;6609;49.882;8.664;2023-07-20T04:37:21;18.70;55.40
13086;DHT22;6609;49.882;8.664;2023-07-20T04:44:43;18.80;55.00
13086;DHT22;6609;49.882;8.664;2023-07-20T04:47:10;18.80;54.50
13086;DHT22;6609;49.882;8.664;2023-07-20T05:21:33;19.50;52.60
13086;DHT22;6609;49.882;8.664;2023-07-20T05:23:59;19.50;52.50
13086;DHT22;6609;49.882;8.664;2023-07-20T05:28:53;19.60;52.00
13086;DHT22;6609;49.882;8.664;2023-07-20T05:41:09;19.70;51.00
13086;DHT22;6609;49.882;8.664;2023-07-20T05:43:36;19.80;51.10
13086;DHT22;6609;49.882;8.664;2023-07-20T05:50:59;19.80;50.80
13086;DHT22;6609;49.882;8.664;2023-07-20T05:53:26;19.80;50.80
13086;DHT22;6609;49.882;8.664;2023-07-20T05:58:20;19.90;50.90
13086;DHT22;6609;49.882;8.664;2023-07-20T06:00:48;19.80;50.30
13086;DHT22;6609;49.882;8.664;2023-07-20T06:03:14;19.80;50.80
13086;DHT22;6609;49.882;8.664;2023-07-20T06:08:10;20.00;50.30
13086;DHT22;6609;49.882;8.664;2023-07-20T06:10:37;20.10;50.30
13086;DHT22;6609;49.882;8.664;2023-07-20T06:15:32;20.00;50.10
13086;DHT22;6609;49.882;8.664;2023-07-20T06:18:01;20.10;50.40
13086;DHT22;6609;49.882;8.664;2023-07-20T06:20:29;20.10;50.10
13086;DHT22;6609;49.882;8.664;2023-07-20T06:27:51;20.40;49.90
13086;DHT22;6609;49.882;8.664;2023-07-20T06:30:19;20.40;49.80
13086;DHT22;6609;49.882;8.664;2023-07-20T06:45:04;20.60;48.70
13086;DHT22;6609;49.882;8.664;2023-07-20T06:49:58;20.90;48.90
13086;DHT22;6609;49.882;8.664;2023-07-20T06:54:52;21.00;49.20
13086;DHT22;6609;49.882;8.664;2023-07-20T06:59:47;21.10;48.80
13086;DHT22;6609;49.882;8.664;2023-07-20T07:04:41;21.00;49.10
13086;DHT22;6609;49.882;8.664;2023-07-20T07:07:08;21.10;48.80
13086;DHT22;6609;49.882;8.664;2023-07-20T07:09:35;21.00;48.80
13086;DHT22;6609;49.882;8.664;2023-07-20T07:14:29;21.10;49.40
13086;DHT22;6609;49.882;8.664;2023-07-20T07:16:57;21.10;49.70
13086;DHT22;6609;49.882;8.664;2023-07-20T07:19:23;21.20;50.00
13086;DHT22;6609;49.882;8.664;2023-07-20T07:26:44;21.60;49.00
13086;DHT22;6609;49.882;8.664;2023-07-20T07:34:06;22.00;47.50
13086;DHT22;6609;49.882;8.664;2023-07-20T07:36:33;22.10;46.90
13086;DHT22;6609;49.882;8.664;2023-07-20T07:39:00;22.10;47.30
13086;DHT22;6609;49.882;8.664;2023-07-20T07:48:47;22.20;45.70
13086;DHT22;6609;49.882;8.664;2023-07-20T08:05:58;22.20;46.00
13086;DHT22;6609;49.882;8.664;2023-07-20T08:08:27;22.20;46.00
13086;DHT22;6609;49.882;8.664;2023-07-20T08:13:21;22.50;45.80
13086;DHT22;6609;49.882;8.664;2023-07-20T08:15:50;22.60;46.10
13086;DHT22;6609;49.882;8.664;2023-07-20T08:18:17;22.50;45.70
13086;DHT22;6609;49.882;8.664;2023-07-20T08:25:39;22.50;46.10
13086;DHT22;6609;49.882;8.664;2023-07-20T08:28:09;22.60;46.30
13086;DHT22;6609;49.882;8.664;2023-07-20T08:30:40;22.70;46.00
13086;DHT22;6609;49.882;8.664;2023-07-20T08:33:07;22.70;45.80
13086;DHT22;6609;49.882;8.664;2023-07-20T08:35:34;22.70;45.20
13086;DHT22;6609;49.882;8.664;2023-07-20T08:40:30;22.40;44.10
13086;DHT22;6609;49.882;8.664;2023-07-20T08:42:58;22.80;43.20
13086;DHT22;6609;49.882;8.664;2023-07-20T08:45:26;22.80;43.10
13086;DHT22;6609;49.882;8.664;2023-07-20T08:47:54;22.80;42.90
13086;DHT22;6609;49.882;8.664;2023-07-20T08:52:52;23.10;42.90
13086;DHT22;6609;49.882;8.664;2023-07-20T08:57:46;23.50;42.20
13086;DHT22;6609;49.882;8.664;2023-07-20T09:00:17;23.70;41.70
13086;DHT22;6609;49.882;8.664;2023-07-20T09:02:46;23.80;42.10
13086;DHT22;6609;49.882;8.664;2023-07-20T09:07:40;23.80;40.40
13086;DHT22;6609;49.882;8.664;2023-07-20T09:10:08;23.60;40.80
13086;DHT22;6609;49.882;8.664;2023-07-20T09:15:03;24.10;40.70
13086;DHT22;6609;49.882;8.664;2023-07-20T09:19:59;24.50;38.20
13086;DHT22;6609;49.882;8.664;2023-07-20T09:22:31;24.60;38.20
13086;DHT22;6609;49.882;8.664;2023-07-20T09:27:35;24.90;37.10
13086;DHT22;6609;49.882;8.664;2023-07-20T09:30:04;24.80;37.20
13086;DHT22;6609;49.882;8.664;2023-07-20T09:32:38;24.70;37.40
13086;DHT22;6609;49.882;8.664;2023-07-20T09:37:33;25.10;37.40
13086;DHT22;6609;49.882;8.664;2023-07-20T09:42:28;24.90;36.00
13086;DHT22;6609;49.882;8.664;2023-07-20T09:44:55;24.90;35.70
13086;DHT22;6609;49.882;8.664;2023-07-20T09:49:57;26.00;34.40
13086;DHT22;6609;49.882;8.664;2023-07-20T09:52:25;26.10;34.10
13086;DHT22;6609;49.882;8.664;2023-07-20T09:54:52;26.30;32.20
13086;DHT22;6609;49.882;8.664;2023-07-20T09:57:21;26.40;31.10
13086;DHT22;6609;49.882;8.664;2023-07-20T10:02:25;27.40;29.00
13086;DHT22;6609;49.882;8.664;2023-07-20T10:04:56;27.80;28.40
13086;DHT22;6609;49.882;8.664;2023-07-20T10:07:27;28.10;28.10
13086;DHT22;6609;49.882;8.664;2023-07-20T10:09:54;28.30;26.60
13086;DHT22;6609;49.882;8.664;2023-07-20T10:15:11;28.20;27.00
13086;DHT22;6609;49.882;8.664;2023-07-20T10:17:43;27.90;25.50
13086;DHT22;6609;49.882;8.664;2023-07-20T10:20:17;28.50;26.80
13086;DHT22;6609;49.882;8.664;2023-07-20T10:22:46;28.90;25.40
13086;DHT22;6609;49.882;8.664;2023-07-20T10:25:14;29.30;25.00
13086;DHT22;6609;49.882;8.664;2023-07-20T10:27:42;29.20;24.60
13086;DHT22;6609;49.882;8.664;2023-07-20T10:32:36;28.10;25.60
13086;DHT22;6609;49.882;8.664;2023-07-20T10:35:12;27.70;25.80
13086;DHT22;6609;49.882;8.664;2023-07-20T10:38:00;27.30;27.30
13086;DHT22;6609;49.882;8.664;2023-07-20T10:40:29;26.90;28.70
13086;DHT22;6609;49.882;8.664;2023-07-20T10:42:58;26.50;28.60
13086;DHT22;6609;49.882;8.664;2023-07-20T10:45:42;26.30;30.00
13086;DHT22;6609;49.882;8.664;2023-07-20T10:48:16;26.20;30.10
13086;DHT22;6609;49.882;8.664;2023-07-20T10:53:13;26.20;30.10
13086;DHT22;6609;49.882;8.664;2023-07-20T11:05:33;25.90;30.70
13086;DHT22;6609;49.882;8.664;2023-07-20T11:08:04;25.90;31.00
13086;DHT22;6609;49.882;8.664;2023-07-20T11:10:32;25.80;30.10
13086;DHT22;6609;49.882;8.664;2023-07-20T11:13:19;25.80;30.00
13086;DHT22;6609;49.882;8.664;2023-07-20T11:15:47;25.80;30.10
13086;DHT22;6609;49.882;8.664;2023-07-20T11:20:42;26.10;30.90
13086;DHT22;6609;49.882;8.664;2023-07-20T11:25:39;27.20;28.90
13086;DHT22;6609;49.882;8.664;2023-07-20T11:28:09;27.40;28.60
13086;DHT22;6609;49.882;8.664;2023-07-20T11:33:04;27.40;29.60
13086;DHT22;6609;49.882;8.664;2023-07-20T11:35:34;28.10;29.40
13086;DHT22;6609;49.882;8.664;2023-07-20T11:38:02;28.70;27.50
13086;DHT22;6609;49.882;8.664;2023-07-20T11:42:57;29.50;24.40
13086;DHT22;6609;49.882;8.664;2023-07-20T11:50:18;28.90;25.00
13086;DHT22;6609;49.882;8.664;2023-07-20T11:55:12;28.40;24.70
13086;DHT22;6609;49.882;8.664;2023-07-20T11:57:38;28.80;23.90
13086;DHT22;6609;49.882;8.664;2023-07-20T12:05:05;28.70;23.00
13086;DHT22;6609;49.882;8.664;2023-07-20T12:07:36;28.70;23.30
13086;DHT22;6609;49.882;8.664;2023-07-20T12:10:05;28.70;23.40
13086;DHT22;6609;49.882;8.664;2023-07-20T12:15:14;28.60;24.10
13086;DHT22;6609;49.882;8.664;2023-07-20T12:17:42;28.60;25.00
13086;DHT22;6609;49.882;8.664;2023-07-20T12:20:10;28.40;24.70
13086;DHT22;6609;49.882;8.664;2023-07-20T12:22:39;28.20;24.40
13086;DHT22;6609;49.882;8.664;2023-07-20T12:30:02;27.70;26.40
13086;DHT22;6609;49.882;8.664;2023-07-20T12:32:31;27.90;27.90
13086;DHT22;6609;49.882;8.664;2023-07-20T12:34:57;28.20;27.70
13086;DHT22;6609;49.882;8.664;2023-07-20T12:37:25;28.40;27.10
13086;DHT22;6609;49.882;8.664;2023-07-20T12:39:52;28.50;25.60
13086;DHT22;6609;49.882;8.664;2023-07-20T12:57:06;28.30;23.80
13086;DHT22;6609;49.882;8.664;2023-07-20T13:02:00;27.60;24.00
13086;DHT22;6609;49.882;8.664;2023-07-20T13:04:27;27.40;24.10
13086;DHT22;6609;49.882;8.664;2023-07-20T13:11:51;27.20;26.50
13086;DHT22;6609;49.882;8.664;2023-07-20T13:21:39;26.90;27.30
13086;DHT22;6609;49.882;8.664;2023-07-20T13:24:08;26.90;27.60
13086;DHT22;6609;49.882;8.664;2023-07-20T13:29:02;26.70;28.00
13086;DHT22;6609;49.882;8.664;2023-07-20T13:33:55;26.50;27.80
13086;DHT22;6609;49.882;8.664;2023-07-20T13:36:23;26.50;28.50
13086;DHT22;6609;49.882;8.664;2023-07-20T13:41:18;26.40;28.00
13086;DHT22;6609;49.882;8.664;2023-07-20T13:51:06;26.50;26.80
13086;DHT22;6609;49.882;8.664;2023-07-20T13:58:31;26.60;27.50
13086;DHT22;6609;49.882;8.664;2023-07-20T14:08:19;26.40;26.10
13086;DHT22;6609;49.882;8.664;2023-07-20T14:15:41;26.90;25.80
13086;DHT22;6609;49.882;8.664;2023-07-20T14:23:01;27.10;25.40
13086;DHT22;6609;49.882;8.664;2023-07-20T14:27:55;27.20;25.50
13086;DHT22;6609;49.882;8.664;2023-07-20T14:30:22;27.20;25.10
13086;DHT22;6609;49.882;8.664;2023-07-20T14:32:50;27.20;25.20
13086;DHT22;6609;49.882;8.664;2023-07-20T14:40:13;27.10;24.80
13086;DHT22;6609;49.882;8.664;2023-07-20T14:47:34;27.00;25.30
13086;DHT22;6609;49.882;8.664;2023-07-20T14:52:30;26.80;25.00
13086;DHT22;6609;49.882;8.664;2023-07-20T14:54:56;26.80;25.30
13086;DHT22;6609;49.882;8.664;2023-07-20T15:04:48;27.10;23.90
13086;DHT22;6609;49.882;8.664;2023-07-20T15:09:43;26.90;23.60
13086;DHT22;6609;49.882;8.664;2023-07-20T15:14:40;26.60;24.20
13086;DHT22;6609;49.882;8.664;2023-07-20T15:17:07;26.60;23.50
13086;DHT22;6609;49.882;8.664;2023-07-20T15:24:30;26.60;22.60
13086;DHT22;6609;49.882;8.664;2023-07-20T15:31:51;26.50;23.90
13086;DHT22;6609;49.882;8.664;2023-07-20T15:34:18;26.60;24.20
13086;DHT22;6609;49.882;8.664;2023-07-20T15:41:40;26.50;23.30
13086;DHT22;6609;49.882;8.664;2023-07-20T15:46:47;26.40;24.20
13086;DHT22;6609;49.882;8.664;2023-07-20T15:56:40;26.40;25.80
13086;DHT22;6609;49.882;8.664;2023-07-20T15:59:09;26.30;25.90
13086;DHT22;6609;49.882;8.664;2023-07-20T16:13:54;26.10;26.20
13086;DHT22;6609;49.882;8.664;2023-07-20T16:31:13;26.10;26.90
13086;DHT22;6609;49.882;8.664;2023-07-20T16:48:28;25.80;25.30
13086;DHT22;6609;49.882;8.664;2023-07-20T17:05:42;25.70;25.80
13086;DHT22;6609;49.882;8.664;2023-07-20T17:13:03;25.60;25.50
13086;DHT22;6609;49.882;8.664;2023-07-20T17:27:47;25.40;26.20
13086;DHT22;6609;49.882;8.664;2023-07-20T17:35:10;25.30;26.30
13086;DHT22;6609;49.882;8.664;2023-07-20T17:37:38;25.20;26.40
13086;DHT22;6609;49.882;8.664;2023-07-20T17:42:37;25.20;26.60
13086;DHT22;6609;49.882;8.664;2023-07-20T17:49:58;25.10;27.50
13086;DHT22;6609;49.882;8.664;2023-07-20T17:57:21;24.90;27.60
13086;DHT22;6609;49.882;8.664;2023-07-20T18:14:32;24.60;28.40
13086;DHT22;6609;49.882;8.664;2023-07-20T18:24:20;24.50;28.60
13086;DHT22;6609;49.882;8.664;2023-07-20T18:31:42;24.40;28.50
13086;DHT22;6609;49.882;8.664;2023-07-20T18:43:57;24.20;29.40
13086;DHT22;6609;49.882;8.664;2023-07-20T19:15:57;23.40;32.20
13086;DHT22;6609;49.882;8.664;2023-07-20T19:18:25;23.40;32.60
13086;DHT22;6609;49.882;8.664;2023-07-20T19:25:48;23.20;33.40
13086;DHT22;6609;49.882;8.664;2023-07-20T19:30:41;23.00;34.10
13086;DHT22;6609;49.882;8.664;2023-07-20T19:35:35;23.00;34.50
13086;DHT22;6609;49.882;8.664;2023-07-20T19:40:32;23.00;34.00
13086;DHT22;6609;49.882;8.664;2023-07-20T20:05:07;22.40;35.70
13086;DHT22;6609;49.882;8.664;2023-07-20T20:32:09;21.90;37.60
13086;DHT22;6609;49.882;8.664;2023-07-20T20:34:36;21.80;37.90
13086;DHT22;6609;49.882;8.664;2023-07-20T20:39:30;21.70;38.30
13086;DHT22;6609;49.882;8.664;2023-07-20T20:46:52;21.80;37.80
13086;DHT22;6609;49.882;8.664;2023-07-20T20:49:27;21.70;37.90
13086;DHT22;6609;49.882;8.664;2023-07-20T20:51:54;21.70;38.20
13086;DHT22;6609;49.882;8.664;2023-07-20T20:56:48;21.70;38.40
13086;DHT22;6609;49.882;8.664;2023-07-20T21:06:41;21.60;38.40
13086;DHT22;6609;49.882;8.664;2023-07-20T21:09:14;21.70;38.40
13086;DHT22;6609;49.882;8.664;2023-07-20T21:11:41;21.60;38.40
13086;DHT22;6609;49.882;8.664;2023-07-20T21:14:08;21.50;38.30
13086;DHT22;6609;49.882;8.664;2023-07-20T21:19:01;21.50;38.30
13086;DHT22;6609;49.882;8.664;2023-07-20T21:21:28;21.50;38.30
13086;DHT22;6609;49.882;8.664;2023-07-20T21:23:56;21.60;38.40
13086;DHT22;6609;49.882;8.664;2023-07-20T21:48:30;21.40;38.20
13086;DHT22;6609;49.882;8.664;2023-07-20T21:50:57;21.40;38.50
13086;DHT22;6609;49.882;8.664;2023-07-20T21:53:23;21.40;38.80
13086;DHT22;6609;49.882;8.664;2023-07-20T21:55:50;21.40;38.70
13086;DHT22;6609;49.882;8.664;2023-07-20T21:58:18;21.40;39.00
13086;DHT22;6609;49.882;8.664;2023-07-20T22:18:03;21.60;39.70
13086;DHT22;6609;49.882;8.664;2023-07-20T22:22:59;21.60;39.80
13086;DHT22;6609;49.882;8.664;2023-07-20T22:27:53;21.50;40.10
13086;DHT22;6609;49.882;8.664;2023-07-20T22:37:42;21.50;41.20
13086;DHT22;6609;49.882;8.664;2023-07-20T22:40:10;21.50;41.20
13086;DHT22;6609;49.882;8.664;2023-07-20T22:45:04;21.40;41.50
13086;DHT22;6609;49.882;8.664;2023-07-20T22:50:00;21.30;41.70
13086;DHT22;6609;49.882;8.664;2023-07-20T22:52:28;21.30;41.60
13086;DHT22;6609;49.882;8.664;2023-07-20T22:54:55;21.30;41.90
13086;DHT22;6609;49.882;8.664;2023-07-20T23:14:35;21.20;41.90
13086;DHT22;6609;49.882;8.664;2023-07-20T23:24:25;21.10;41.90
13086;DHT22;6609;49.882;8.664;2023-07-20T23:36:42;21.00;42.00
13086;DHT22;6609;49.882;8.664;2023-07-20T23:44:06;20.90;41.50
13086;DHT22;6609;49.882;8.664;2023-07-20T23:53:56;20.60;42.20
